Time;durP1;ratioP1;P1;durP2;ratioP2;P2;SDS_P1;SDS_P2;PMS_P1;PMS_P2;Temp;Humidity;BMP_temperature;BMP_pressure;BME280_temperature;BME280_humidity;BME280_pressure;Samples;Min_cycle;Max_cycle;Signal;HPM_P1;HPM_P2
2024/02/11 00:01:18;;;;;;;40.53;23.63;;;7.70;99.90;;;;;;5072294;28;20395;-80
2024/02/11 00:03:43;;;;;;;26.25;13.07;;;7.70;99.90;;;;;;4992017;28;20139;-80
2024/02/11 00:06:11;;;;;;;22.85;13.00;;;7.80;99.90;;;;;;4992073;28;20410;-83
2024/02/11 00:08:39;;;;;;;32.10;14.30;;;7.90;99.90;;;;;;5070053;28;20034;-81
2024/02/11 00:11:06;;;;;;;22.17;14.13;;;7.90;99.90;;;;;;5004487;28;20022;-80
2024/02/11 00:13:32;;;;;;;26.45;13.18;;;8.00;99.90;;;;;;5071739;28;20026;-82
2024/02/11 00:16:01;;;;;;;26.48;13.70;;;8.00;99.90;;;;;;5063637;28;20138;-83
2024/02/11 00:18:28;;;;;;;24.90;13.82;;;8.00;99.90;;;;;;5067242;28;20021;-83
2024/02/11 00:20:57;;;;;;;28.73;14.90;;;7.90;99.90;;;;;;4996490;28;20513;-84
2024/02/11 00:23:22;;;;;;;25.75;14.65;;;7.90;99.90;;;;;;5008265;28;20033;-79
2024/02/11 00:25:53;;;;;;;33.95;15.45;;;7.90;99.90;;;;;;5009288;28;20034;-80
2024/02/11 00:28:21;;;;;;;22.17;13.00;;;7.80;99.90;;;;;;4996618;28;20033;-83
2024/02/11 00:30:50;;;;;;;26.17;15.73;;;7.90;99.90;;;;;;5072951;28;20034;-84
2024/02/11 00:33:19;;;;;;;23.65;13.20;;;7.90;99.90;;;;;;4999313;28;20034;-84
2024/02/11 00:35:49;;;;;;;27.45;12.10;;;7.90;99.90;;;;;;4995705;28;20411;-85
2024/02/11 00:38:15;;;;;;;28.48;13.82;;;7.90;99.90;;;;;;5002968;28;20130;-79
2024/02/11 00:40:41;;;;;;;23.83;12.63;;;7.90;99.90;;;;;;5076198;28;20041;-84
2024/02/11 00:43:09;;;;;;;21.60;12.93;;;7.90;99.90;;;;;;5007936;28;20057;-84
2024/02/11 00:45:35;;;;;;;26.23;12.65;;;7.90;99.90;;;;;;5076352;28;20034;-80
2024/02/11 00:48:03;;;;;;;24.65;13.45;;;7.90;99.90;;;;;;5007265;28;20079;-80
2024/02/11 00:50:32;;;;;;;23.85;12.48;;;7.90;99.90;;;;;;5005785;28;20049;-81
2024/02/11 00:53:02;;;;;;;21.83;11.98;;;7.90;99.90;;;;;;5075367;28;20022;-79
2024/02/11 00:55:28;;;;;;;23.70;11.55;;;7.90;99.90;;;;;;5075964;28;20446;-79
2024/02/11 00:57:54;;;;;;;18.40;11.02;;;7.90;99.90;;;;;;5008508;28;21237;-80
2024/02/11 01:00:20;;;;;;;24.88;11.88;;;8.00;99.90;;;;;;5009933;28;20030;-83
2024/02/11 01:02:46;;;;;;;23.35;12.95;;;8.00;99.90;;;;;;4995814;28;20022;-83
2024/02/11 01:05:11;;;;;;;24.80;12.75;;;8.00;99.90;;;;;;5002006;28;20037;-80
2024/02/11 01:07:39;;;;;;;25.38;11.82;;;8.10;99.90;;;;;;5003150;28;20034;-80
2024/02/11 01:10:10;;;;;;;23.52;10.48;;;8.10;99.90;;;;;;5001947;28;20050;-80
2024/02/11 01:12:39;;;;;;;21.73;11.98;;;8.10;99.90;;;;;;5075909;28;20014;-80
2024/02/11 01:15:07;;;;;;;19.38;12.15;;;8.00;99.90;;;;;;5074779;28;20564;-79
2024/02/11 01:17:32;;;;;;;24.85;13.48;;;8.00;99.90;;;;;;5008843;28;20399;-79
2024/02/11 01:19:58;;;;;;;26.00;12.90;;;8.00;99.90;;;;;;5008672;28;20038;-83
2024/02/11 01:22:23;;;;;;;18.55;11.88;;;8.00;99.90;;;;;;5077193;28;20030;-83
2024/02/11 01:24:49;;;;;;;22.65;11.77;;;7.90;99.90;;;;;;5075333;28;20045;-83
2024/02/11 01:27:15;;;;;;;23.20;13.18;;;7.90;99.90;;;;;;5076816;28;20030;-83
2024/02/11 01:29:41;;;;;;;22.17;11.88;;;7.90;99.90;;;;;;5071451;28;20105;-85
2024/02/11 01:32:08;;;;;;;19.58;13.68;;;7.90;99.90;;;;;;5073954;28;20095;-83
2024/02/11 01:34:34;;;;;;;27.27;14.60;;;7.90;99.90;;;;;;5071497;28;20034;-83
2024/02/11 01:37:00;;;;;;;29.15;15.43;;;7.90;99.90;;;;;;5064920;28;20049;-83
2024/02/11 01:39:26;;;;;;;24.98;13.43;;;7.90;99.90;;;;;;5077649;28;20053;-82
2024/02/11 01:41:51;;;;;;;26.67;15.02;;;7.90;99.90;;;;;;5077250;28;20017;-84
2024/02/11 01:44:18;;;;;;;26.00;13.75;;;7.80;99.90;;;;;;5076629;28;20030;-83
2024/02/11 01:46:44;;;;;;;26.90;13.35;;;7.80;99.90;;;;;;5077744;28;20060;-83
2024/02/11 01:49:11;;;;;;;27.60;14.10;;;7.80;99.90;;;;;;5077170;28;20026;-83
2024/02/11 01:51:42;;;;;;;20.50;13.13;;;7.70;99.90;;;;;;5075621;28;20022;-83
2024/02/11 01:54:10;;;;;;;24.38;14.13;;;7.70;99.90;;;;;;5071436;28;20021;-83
2024/02/11 01:56:36;;;;;;;35.53;15.82;;;7.70;99.90;;;;;;5076286;28;20053;-82
2024/02/11 01:59:05;;;;;;;28.95;15.98;;;7.70;99.90;;;;;;5077509;28;20041;-82
2024/02/11 02:01:32;;;;;;;30.58;14.60;;;7.60;99.90;;;;;;5077155;28;20468;-82
2024/02/11 02:03:58;;;;;;;26.98;15.23;;;7.60;99.90;;;;;;5077069;28;20472;-83
2024/02/11 02:06:24;;;;;;;29.42;16.60;;;7.60;99.90;;;;;;5009701;28;20034;-82
2024/02/11 02:08:50;;;;;;;28.20;14.55;;;7.50;99.90;;;;;;5009146;28;20479;-82
2024/02/11 02:11:17;;;;;;;27.85;14.55;;;7.60;99.90;;;;;;5007672;28;20026;-81
2024/02/11 02:13:42;;;;;;;27.85;15.60;;;7.60;99.90;;;;;;5077297;28;20396;-82
2024/02/11 02:16:08;;;;;;;24.48;14.05;;;7.60;99.90;;;;;;4997848;28;20022;-82
2024/02/11 02:18:35;;;;;;;25.45;14.25;;;7.60;99.90;;;;;;5009587;28;20170;-81
2024/02/11 02:21:02;;;;;;;28.38;13.93;;;7.50;99.90;;;;;;5077463;28;20021;-82
2024/02/11 02:23:29;;;;;;;27.20;14.75;;;7.50;99.90;;;;;;5077494;28;20019;-81
2024/02/11 02:25:56;;;;;;;22.73;12.73;;;7.50;99.90;;;;;;5076841;28;20379;-81
2024/02/11 02:28:22;;;;;;;31.90;15.75;;;7.50;99.90;;;;;;5076943;28;20029;-82
2024/02/11 02:30:47;;;;;;;22.83;13.50;;;7.50;99.90;;;;;;5080157;28;20384;-82
2024/02/11 02:33:13;;;;;;;25.23;14.18;;;7.50;99.90;;;;;;5012655;28;20111;-82
2024/02/11 02:35:38;;;;;;;25.88;13.82;;;7.50;99.90;;;;;;5002709;28;20030;-82
2024/02/11 02:38:04;;;;;;;27.13;14.50;;;7.50;99.90;;;;;;5009834;28;20046;-82
2024/02/11 02:40:31;;;;;;;22.38;12.95;;;7.50;99.90;;;;;;5081002;28;20058;-82
2024/02/11 02:43:00;;;;;;;23.85;14.05;;;7.50;99.90;;;;;;5012221;28;20079;-82
2024/02/11 02:45:26;;;;;;;20.05;13.00;;;7.50;99.90;;;;;;5003350;28;20026;-82
2024/02/11 02:47:53;;;;;;;23.73;13.80;;;7.50;99.90;;;;;;5010524;28;20018;-83
2024/02/11 02:50:19;;;;;;;23.00;13.30;;;7.50;99.90;;;;;;5012863;28;20034;-83
2024/02/11 02:52:46;;;;;;;24.20;13.00;;;7.50;99.90;;;;;;5080484;28;20025;-83
2024/02/11 02:55:12;;;;;;;23.10;12.23;;;7.50;99.90;;;;;;5076182;28;20034;-83
2024/02/11 02:57:38;;;;;;;23.55;13.25;;;7.50;99.90;;;;;;5080230;28;20109;-83
2024/02/11 03:00:09;;;;;;;20.25;12.05;;;7.50;99.90;;;;;;5012692;28;20110;-83
2024/02/11 03:02:35;;;;;;;21.77;12.63;;;7.40;99.90;;;;;;5010968;28;20390;-83
2024/02/11 03:05:04;;;;;;;25.33;14.60;;;7.50;99.90;;;;;;5080617;28;20101;-79
2024/02/11 03:07:29;;;;;;;24.17;13.85;;;7.50;99.90;;;;;;5095226;28;20424;-83
2024/02/11 03:09:55;;;;;;;25.15;12.75;;;7.40;99.90;;;;;;5080129;28;20068;-79
2024/02/11 03:12:21;;;;;;;21.83;13.48;;;7.40;99.90;;;;;;5080622;28;20040;-83
2024/02/11 03:14:49;;;;;;;27.92;13.10;;;7.40;99.90;;;;;;5088612;28;20061;-79
2024/02/11 03:17:15;;;;;;;26.45;15.30;;;7.40;99.90;;;;;;5080488;28;20117;-83
2024/02/11 03:19:43;;;;;;;24.70;14.40;;;7.40;99.90;;;;;;5080659;28;20118;-79
2024/02/11 03:22:12;;;;;;;24.17;14.32;;;7.40;99.90;;;;;;5097132;28;20018;-82
2024/02/11 03:24:39;;;;;;;29.42;14.75;;;7.40;99.90;;;;;;5080567;28;20101;-83
2024/02/11 03:27:05;;;;;;;25.60;14.70;;;7.40;99.90;;;;;;5012233;28;20026;-79
2024/02/11 03:29:31;;;;;;;25.85;14.57;;;7.40;99.90;;;;;;5012178;28;20040;-79
2024/02/11 03:31:57;;;;;;;25.27;13.20;;;7.30;99.90;;;;;;5079415;28;20010;-79
2024/02/11 03:34:24;;;;;;;24.90;14.32;;;7.40;99.90;;;;;;5012216;28;20041;-82
2024/02/11 03:36:50;;;;;;;24.60;14.55;;;7.40;99.90;;;;;;5079734;28;20057;-80
2024/02/11 03:39:16;;;;;;;23.90;13.90;;;7.40;99.90;;;;;;5080174;28;20081;-82
2024/02/11 03:41:41;;;;;;;22.30;13.75;;;7.40;99.90;;;;;;5095405;28;20530;-80
2024/02/11 03:44:08;;;;;;;27.60;16.10;;;7.40;99.90;;;;;;5079996;28;20109;-79
2024/02/11 03:46:34;;;;;;;26.20;13.40;;;7.40;99.90;;;;;;5079929;28;20505;-81
2024/02/11 03:49:03;;;;;;;25.88;13.77;;;7.40;99.90;;;;;;5011694;28;20539;-83
2024/02/11 03:51:30;;;;;;;28.13;15.05;;;7.40;99.90;;;;;;5067534;28;20055;-80
2024/02/11 03:53:59;;;;;;;21.55;12.23;;;7.40;99.90;;;;;;5079641;28;20079;-83
2024/02/11 03:56:26;;;;;;;21.17;12.15;;;7.50;99.90;;;;;;5011938;28;20105;-79
2024/02/11 03:58:52;;;;;;;23.20;11.98;;;7.50;99.90;;;;;;5079758;28;20029;-82
2024/02/11 04:01:18;;;;;;;21.45;11.43;;;7.50;99.90;;;;;;5079738;28;20040;-82
2024/02/11 04:03:44;;;;;;;19.30;11.35;;;7.60;99.90;;;;;;5079599;28;20022;-79
2024/02/11 04:06:11;;;;;;;16.85;10.98;;;7.60;99.90;;;;;;5005277;28;20025;-79
2024/02/11 04:08:41;;;;;;;20.75;12.45;;;7.60;99.90;;;;;;5005742;28;20026;-79
2024/02/11 04:11:07;;;;;;;20.75;12.23;;;7.60;99.90;;;;;;5012112;28;20014;-79
2024/02/11 04:13:33;;;;;;;25.13;11.32;;;7.60;99.90;;;;;;5079588;28;20022;-79
2024/02/11 04:16:05;;;;;;;19.05;10.90;;;7.60;99.90;;;;;;5079478;28;20387;-78
2024/02/11 04:18:32;;;;;;;19.92;11.63;;;7.60;99.90;;;;;;5079237;28;20022;-79
2024/02/11 04:20:59;;;;;;;20.58;11.48;;;7.60;99.90;;;;;;5079317;28;20030;-79
2024/02/11 04:23:25;;;;;;;19.73;10.60;;;7.60;99.90;;;;;;5009647;28;20036;-79
2024/02/11 04:25:52;;;;;;;23.25;11.50;;;7.60;99.90;;;;;;5079424;28;20113;-82
2024/02/11 04:28:20;;;;;;;19.00;11.55;;;7.60;99.90;;;;;;5011414;28;20172;-79
2024/02/11 04:30:46;;;;;;;22.13;12.40;;;7.60;99.90;;;;;;5079589;28;20037;-82
2024/02/11 04:33:15;;;;;;;19.65;11.75;;;7.60;99.90;;;;;;5079162;28;20014;-82
2024/02/11 04:35:41;;;;;;;18.75;11.30;;;7.70;99.90;;;;;;5076694;28;20022;-79
2024/02/11 04:38:12;;;;;;;19.38;11.00;;;7.70;99.90;;;;;;5075776;28;20046;-79
2024/02/11 04:40:39;;;;;;;24.20;12.15;;;7.70;99.90;;;;;;5011285;28;20048;-79
2024/02/11 04:43:05;;;;;;;21.15;11.38;;;7.60;99.90;;;;;;5011143;28;20022;-79
2024/02/11 04:45:30;;;;;;;23.85;11.43;;;7.60;99.90;;;;;;5011195;28;20025;-81
2024/02/11 04:48:02;;;;;;;23.65;13.02;;;7.50;99.90;;;;;;5079606;28;20014;-82
2024/02/11 04:50:28;;;;;;;26.67;13.15;;;7.50;99.90;;;;;;5078619;28;20563;-82
2024/02/11 04:52:55;;;;;;;22.23;12.18;;;7.40;99.90;;;;;;5079500;28;20038;-81
2024/02/11 04:55:28;;;;;;;22.00;12.50;;;7.40;99.90;;;;;;5078991;28;20022;-79
2024/02/11 04:57:58;;;;;;;22.20;13.10;;;7.40;99.90;;;;;;5078319;28;20061;-81
2024/02/11 05:00:28;;;;;;;21.58;13.35;;;7.40;99.90;;;;;;5079168;28;20030;-79
2024/02/11 05:02:59;;;;;;;24.63;13.07;;;7.30;99.90;;;;;;5078367;28;20086;-80
2024/02/11 05:05:31;;;;;;;29.70;15.15;;;7.30;99.90;;;;;;4996934;28;20035;-79
2024/02/11 05:08:00;;;;;;;31.95;16.48;;;7.30;99.90;;;;;;5000056;28;20032;-79
2024/02/11 05:10:27;;;;;;;34.58;17.88;;;7.20;99.90;;;;;;5010127;28;20049;-79
2024/02/11 05:12:56;;;;;;;31.08;16.77;;;7.30;99.90;;;;;;5078941;28;20036;-79
2024/02/11 05:15:23;;;;;;;44.75;20.45;;;7.20;99.90;;;;;;5078228;28;20067;-79
2024/02/11 05:17:50;;;;;;;34.15;18.27;;;7.30;99.90;;;;;;5078453;28;20087;-81
2024/02/11 05:20:29;;;;;;;33.35;16.92;;;7.20;99.90;;;;;;5010591;28;20432;-81
2024/02/11 05:22:57;;;;;;;34.40;17.88;;;7.20;99.90;;;;;;5079288;28;20407;-81
2024/02/11 05:25:25;;;;;;;28.25;15.57;;;7.20;99.90;;;;;;5078279;28;20029;-78
2024/02/11 05:28:00;;;;;;;30.65;16.65;;;7.20;99.90;;;;;;5078205;28;20497;-81
2024/02/11 05:30:42;;;;;;;28.45;16.55;;;7.20;99.90;;;;;;5065796;28;20078;-80
2024/02/11 05:33:16;;;;;;;26.02;15.95;;;7.20;99.90;;;;;;5078135;28;20420;-80
2024/02/11 05:35:43;;;;;;;31.45;16.30;;;7.10;99.90;;;;;;5078679;28;20060;-79
2024/02/11 05:38:10;;;;;;;30.95;16.42;;;7.20;99.90;;;;;;5009622;28;20077;-79
2024/02/11 05:40:41;;;;;;;26.50;15.85;;;7.10;99.90;;;;;;5079507;28;20026;-81
2024/02/11 05:43:08;;;;;;;24.33;15.35;;;7.10;99.90;;;;;;5010123;28;20100;-79
2024/02/11 05:45:38;;;;;;;26.23;16.60;;;7.10;99.90;;;;;;5009938;28;20033;-79
2024/02/11 05:48:04;;;;;;;34.90;19.30;;;7.10;99.90;;;;;;5077788;28;20391;-79
2024/02/11 05:50:30;;;;;;;36.17;20.13;;;7.10;99.90;;;;;;5010226;28;20506;-81
2024/02/11 05:52:57;;;;;;;32.80;19.48;;;7.10;99.90;;;;;;5070732;28;20018;-81
2024/02/11 05:55:23;;;;;;;37.60;18.52;;;7.10;99.90;;;;;;5004130;28;20030;-79
2024/02/11 05:57:51;;;;;;;35.60;20.65;;;7.10;99.90;;;;;;5009932;28;20022;-82
2024/02/11 06:00:21;;;;;;;32.35;19.55;;;7.10;99.90;;;;;;5010010;28;20022;-81
2024/02/11 06:02:48;;;;;;;37.22;20.10;;;7.10;99.90;;;;;;5076573;28;20014;-79
2024/02/11 06:05:15;;;;;;;31.50;19.65;;;7.10;99.90;;;;;;5009186;28;20061;-79
2024/02/11 06:07:51;;;;;;;36.60;20.05;;;7.10;99.90;;;;;;4998921;28;20034;-82
2024/02/11 06:10:18;;;;;;;35.88;19.70;;;7.10;99.90;;;;;;5077148;28;20399;-80
2024/02/11 06:12:45;;;;;;;36.35;21.02;;;7.10;99.90;;;;;;5082131;28;20483;-80
2024/02/11 06:15:14;;;;;;;41.25;22.65;;;7.10;99.90;;;;;;5077408;28;20017;-79
2024/02/11 06:17:41;;;;;;;36.70;20.65;;;7.10;99.90;;;;;;5001076;28;20014;-83
2024/02/11 06:20:14;;;;;;;32.28;18.88;;;7.10;99.90;;;;;;5073258;28;20025;-79
2024/02/11 06:22:42;;;;;;;40.55;20.30;;;7.10;99.90;;;;;;5077699;28;20026;-82
2024/02/11 06:25:08;;;;;;;36.85;20.60;;;7.20;99.90;;;;;;5009951;28;20071;-79
2024/02/11 06:27:34;;;;;;;35.65;19.15;;;7.20;99.90;;;;;;5077431;28;20117;-82
2024/02/11 06:30:01;;;;;;;33.10;19.45;;;7.20;99.90;;;;;;5007934;28;20026;-78
2024/02/11 06:32:27;;;;;;;35.58;20.42;;;7.10;99.90;;;;;;5068334;28;20026;-83
2024/02/11 06:34:52;;;;;;;35.45;20.50;;;7.20;99.90;;;;;;5076818;28;20041;-82
2024/02/11 06:37:21;;;;;;;32.05;19.65;;;7.20;99.90;;;;;;5075250;28;20045;-83
2024/02/11 06:39:47;;;;;;;31.70;17.63;;;7.20;99.90;;;;;;5009275;28;20030;-79
2024/02/11 06:42:14;;;;;;;31.40;16.35;;;7.20;99.90;;;;;;5077421;28;20029;-79
2024/02/11 06:44:40;;;;;;;30.70;16.10;;;7.20;99.90;;;;;;5075524;28;20022;-83
2024/02/11 06:47:10;;;;;;;23.00;15.88;;;7.30;99.90;;;;;;5001366;28;20105;-83
2024/02/11 06:49:40;;;;;;;26.83;16.33;;;7.30;99.90;;;;;;5055836;28;20399;-80
2024/02/11 06:52:09;;;;;;;27.42;16.65;;;7.30;99.90;;;;;;5076858;28;20054;-79
2024/02/11 06:54:37;;;;;;;31.42;16.02;;;7.30;99.90;;;;;;5009354;28;20018;-82
2024/02/11 06:57:03;;;;;;;23.88;16.30;;;7.30;99.90;;;;;;5009458;28;20046;-83
2024/02/11 06:59:29;;;;;;;28.27;16.73;;;7.40;99.90;;;;;;5009351;28;20395;-79
2024/02/11 07:01:56;;;;;;;28.98;17.63;;;7.40;99.90;;;;;;5077417;28;20030;-83
2024/02/11 07:04:23;;;;;;;29.92;16.98;;;7.40;99.90;;;;;;5076956;28;20037;-82
2024/02/11 07:06:53;;;;;;;27.55;15.32;;;7.40;99.90;;;;;;5077655;28;20018;-79
2024/02/11 07:09:22;;;;;;;31.55;17.63;;;7.40;99.90;;;;;;5076525;28;20062;-80
2024/02/11 07:11:49;;;;;;;27.00;16.42;;;7.50;99.90;;;;;;5009087;28;20022;-79
2024/02/11 07:14:15;;;;;;;29.00;16.73;;;7.50;99.90;;;;;;5007841;28;20456;-79
2024/02/11 07:16:45;;;;;;;27.17;15.73;;;7.50;99.90;;;;;;5079511;28;20065;-81
2024/02/11 07:19:12;;;;;;;28.98;15.20;;;7.50;99.90;;;;;;5006070;28;20042;-82
2024/02/11 07:21:39;;;;;;;26.45;17.15;;;7.50;99.90;;;;;;5042121;28;20030;-78
2024/02/11 07:24:09;;;;;;;23.15;16.13;;;7.50;99.90;;;;;;5002758;28;20685;-79
2024/02/11 07:26:38;;;;;;;28.92;16.48;;;7.50;99.90;;;;;;5080251;28;20060;-80
2024/02/11 07:29:04;;;;;;;24.55;16.25;;;7.50;99.90;;;;;;5079890;28;20062;-80
2024/02/11 07:31:33;;;;;;;32.35;17.35;;;7.50;99.90;;;;;;5001250;28;20053;-79
2024/02/11 07:34:00;;;;;;;30.75;15.80;;;7.60;99.90;;;;;;5007146;28;20022;-80
2024/02/11 07:36:27;;;;;;;28.50;15.35;;;7.60;99.90;;;;;;5066666;28;20483;-80
2024/02/11 07:38:54;;;;;;;27.13;14.65;;;7.60;99.90;;;;;;4999989;28;20050;-79
2024/02/11 07:41:21;;;;;;;19.10;13.43;;;7.60;99.90;;;;;;5073271;28;20026;-78
2024/02/11 07:43:47;;;;;;;21.38;13.98;;;7.60;99.90;;;;;;5072808;28;20076;-78
2024/02/11 07:46:16;;;;;;;24.15;14.48;;;7.60;99.90;;;;;;5079300;28;20014;-79
2024/02/11 07:48:45;;;;;;;23.20;14.27;;;7.60;99.90;;;;;;5005707;28;20021;-79
2024/02/11 07:51:14;;;;;;;21.73;13.73;;;7.60;99.90;;;;;;5000111;28;20022;-81
2024/02/11 07:53:40;;;;;;;21.80;13.88;;;7.70;99.90;;;;;;5064921;28;20026;-81
2024/02/11 07:56:13;;;;;;;23.27;14.52;;;7.70;99.90;;;;;;5072593;28;20517;-82
2024/02/11 07:58:42;;;;;;;24.67;13.80;;;7.70;99.90;;;;;;5004943;28;20364;-82
2024/02/11 08:01:08;;;;;;;22.05;13.73;;;7.80;99.90;;;;;;5003478;28;20029;-82
2024/02/11 08:03:34;;;;;;;18.10;12.45;;;7.80;99.90;;;;;;5008392;28;20038;-79
2024/02/11 08:06:00;;;;;;;26.77;14.20;;;7.80;99.90;;;;;;5007468;28;20022;-79
2024/02/11 08:08:26;;;;;;;21.98;13.00;;;7.80;99.90;;;;;;5007567;28;20537;-79
2024/02/11 08:10:52;;;;;;;18.60;11.70;;;7.80;99.90;;;;;;5079061;28;20109;-79
2024/02/11 08:13:17;;;;;;;20.77;12.18;;;7.90;99.90;;;;;;5014143;28;20024;-79
2024/02/11 08:15:46;;;;;;;23.08;12.20;;;7.90;99.90;;;;;;5002956;28;20480;-79
2024/02/11 08:18:12;;;;;;;16.63;11.40;;;7.90;99.90;;;;;;5078545;28;20464;-81
2024/02/11 08:20:38;;;;;;;19.40;12.73;;;8.00;99.90;;;;;;5070278;28;20026;-81
2024/02/11 08:23:05;;;;;;;17.73;12.93;;;8.00;99.90;;;;;;4998018;28;20373;-83
2024/02/11 08:25:31;;;;;;;22.35;13.18;;;8.00;99.90;;;;;;5068430;28;20052;-83
2024/02/11 08:27:56;;;;;;;18.13;11.45;;;8.10;99.90;;;;;;5071753;28;20014;-82
2024/02/11 08:30:23;;;;;;;25.48;12.18;;;8.10;99.90;;;;;;5001997;28;20098;-83
2024/02/11 08:32:48;;;;;;;20.63;12.68;;;8.20;99.90;;;;;;5000946;28;20022;-82
2024/02/11 08:35:14;;;;;;;26.02;14.30;;;8.30;99.90;;;;;;4994245;28;20026;-82
2024/02/11 08:37:44;;;;;;;21.20;12.50;;;8.30;99.90;;;;;;5085900;28;20126;-82
2024/02/11 08:40:12;;;;;;;24.35;11.80;;;8.40;99.90;;;;;;5094442;28;20023;-82
2024/02/11 08:42:38;;;;;;;24.77;14.05;;;8.40;99.90;;;;;;5082599;28;20435;-82
2024/02/11 08:45:04;;;;;;;23.60;13.80;;;8.50;99.90;;;;;;5088539;28;20119;-83
2024/02/11 08:47:29;;;;;;;17.45;10.18;;;8.50;99.90;;;;;;5086958;28;20119;-83
2024/02/11 08:49:56;;;;;;;12.90;9.80;;;8.60;99.90;;;;;;5092396;28;20066;-83
2024/02/11 08:52:22;;;;;;;11.65;9.13;;;8.60;99.90;;;;;;5089738;28;20025;-82
2024/02/11 08:54:48;;;;;;;12.77;9.63;;;8.70;99.90;;;;;;5107223;28;20020;-82
2024/02/11 08:57:17;;;;;;;17.13;9.93;;;8.80;99.90;;;;;;5091190;28;20495;-83
2024/02/11 08:59:46;;;;;;;13.77;9.85;;;8.80;99.90;;;;;;5081593;28;20024;-83
2024/02/11 09:02:12;;;;;;;14.23;9.00;;;8.80;99.90;;;;;;5091877;28;20020;-80
2024/02/11 09:04:38;;;;;;;17.20;10.02;;;8.90;99.90;;;;;;5108246;28;20027;-79
2024/02/11 09:07:08;;;;;;;15.05;10.27;;;8.90;99.90;;;;;;5084634;28;20063;-80
2024/02/11 09:09:34;;;;;;;15.70;10.70;;;8.90;99.90;;;;;;5091070;28;20063;-80
2024/02/11 09:12:01;;;;;;;18.52;10.98;;;8.90;99.90;;;;;;5084617;28;20077;-80
2024/02/11 09:14:31;;;;;;;16.95;11.07;;;8.90;99.90;;;;;;5092545;28;20038;-80
2024/02/11 09:16:59;;;;;;;17.55;10.60;;;8.90;99.90;;;;;;5087741;28;20107;-80
2024/02/11 09:19:27;;;;;;;19.83;11.85;;;8.90;99.90;;;;;;5091574;28;20012;-80
2024/02/11 09:21:54;;;;;;;18.48;10.60;;;8.90;99.90;;;;;;5084848;28;20030;-81
2024/02/11 09:24:20;;;;;;;18.83;11.18;;;8.90;99.90;;;;;;5088579;28;20103;-81
2024/02/11 09:26:47;;;;;;;15.45;10.93;;;8.90;99.90;;;;;;5078851;28;20016;-77
2024/02/11 09:29:13;;;;;;;16.98;10.20;;;8.90;99.90;;;;;;5088271;28;20020;-79
2024/02/11 09:31:39;;;;;;;19.02;10.10;;;8.90;99.90;;;;;;5083719;28;20023;-77
2024/02/11 09:34:05;;;;;;;16.65;10.52;;;8.90;99.90;;;;;;5080826;28;20066;-77
2024/02/11 09:36:33;;;;;;;16.58;9.75;;;8.90;99.90;;;;;;5078849;28;20016;-77
2024/02/11 09:38:59;;;;;;;13.63;10.00;;;8.80;99.90;;;;;;5025307;28;20054;-78
2024/02/11 09:41:30;;;;;;;12.35;8.73;;;8.80;99.90;;;;;;5010071;28;20034;-77
2024/02/11 09:44:04;;;;;;;20.30;9.65;;;8.80;99.90;;;;;;5079533;28;20022;-77
2024/02/11 09:46:36;;;;;;;16.52;9.93;;;8.90;99.90;;;;;;5071482;28;20037;-77
2024/02/11 09:49:09;;;;;;;17.27;10.90;;;8.80;99.90;;;;;;5075002;28;20048;-77
2024/02/11 09:51:35;;;;;;;21.60;11.52;;;8.90;99.90;;;;;;5010113;28;20104;-78
2024/02/11 09:54:07;;;;;;;19.17;12.00;;;8.90;99.90;;;;;;5003969;28;20029;-79
2024/02/11 09:56:32;;;;;;;23.77;14.75;;;8.90;99.90;;;;;;5077686;28;20109;-79
2024/02/11 09:58:58;;;;;;;27.65;14.88;;;8.90;99.90;;;;;;5078252;28;20022;-78
2024/02/11 10:01:25;;;;;;;27.63;14.20;;;8.90;99.90;;;;;;5076084;28;20022;-79
2024/02/11 10:03:57;;;;;;;24.73;14.93;;;9.00;99.90;;;;;;5076590;28;20025;-78
2024/02/11 10:06:30;;;;;;;26.00;15.10;;;9.00;99.90;;;;;;5078090;28;20015;-78
2024/02/11 10:08:56;;;;;;;21.48;14.25;;;9.00;99.90;;;;;;5077285;28;20034;-78
2024/02/11 10:11:23;;;;;;;26.42;12.90;;;9.00;99.90;;;;;;5074977;28;21647;-78
2024/02/11 10:13:49;;;;;;;20.00;13.02;;;8.90;99.90;;;;;;5075455;28;20248;-78
2024/02/11 10:16:16;;;;;;;22.73;12.85;;;8.90;99.90;;;;;;5077055;28;20158;-79
2024/02/11 10:18:42;;;;;;;22.88;13.05;;;8.90;99.90;;;;;;5077037;28;20057;-78
2024/02/11 10:21:08;;;;;;;19.25;12.93;;;8.90;99.90;;;;;;5074113;28;20461;-78
2024/02/11 10:23:41;;;;;;;14.35;9.10;;;8.90;99.90;;;;;;5065113;28;20411;-78
2024/02/11 10:26:11;;;;;;;15.10;9.52;;;8.90;99.90;;;;;;5071683;28;20071;-79
2024/02/11 10:28:39;;;;;;;13.60;9.70;;;8.90;99.90;;;;;;5004807;28;20022;-79
2024/02/11 10:31:05;;;;;;;11.32;8.68;;;8.90;99.90;;;;;;5002322;28;20026;-79
2024/02/11 10:33:32;;;;;;;11.02;8.15;;;8.90;99.90;;;;;;5005066;28;21501;-78
2024/02/11 10:36:02;;;;;;;14.85;8.85;;;8.90;99.90;;;;;;5069512;28;20033;-78
2024/02/11 10:38:30;;;;;;;14.23;7.80;;;8.90;99.90;;;;;;5090845;28;20092;-79
2024/02/11 10:40:56;;;;;;;12.50;8.95;;;8.90;99.90;;;;;;5082877;28;20411;-78
2024/02/11 10:43:24;;;;;;;13.63;8.90;;;8.80;99.90;;;;;;5091188;28;20114;-82
2024/02/11 10:45:51;;;;;;;12.48;7.78;;;8.80;99.90;;;;;;5091018;28;20024;-79
2024/02/11 10:48:21;;;;;;;12.32;7.78;;;8.80;99.90;;;;;;5091729;28;20154;-78
2024/02/11 10:51:03;;;;;;;9.77;7.93;;;8.80;99.90;;;;;;5078603;28;20508;-79
2024/02/11 10:53:34;;;;;;;12.07;7.00;;;8.80;99.90;;;;;;5086616;28;20031;-79
2024/02/11 10:56:02;;;;;;;11.73;8.03;;;8.80;99.90;;;;;;5091042;28;20019;-79
2024/02/11 10:58:31;;;;;;;9.70;7.13;;;8.80;99.90;;;;;;5089427;28;20317;-79
2024/02/11 11:00:58;;;;;;;10.23;7.38;;;8.80;99.90;;;;;;5092871;28;20024;-79
2024/02/11 11:03:28;;;;;;;13.25;8.13;;;8.80;99.90;;;;;;5088091;28;20513;-83
2024/02/11 11:05:56;;;;;;;11.73;7.95;;;8.80;99.90;;;;;;5094313;28;20215;-83
2024/02/11 11:08:23;;;;;;;14.45;9.20;;;8.70;99.90;;;;;;5074995;28;20050;-78
2024/02/11 11:10:49;;;;;;;14.23;8.70;;;8.70;99.90;;;;;;5084233;28;20029;-83
2024/02/11 11:13:23;;;;;;;12.52;9.73;;;8.70;99.90;;;;;;5077679;28;20485;-83
2024/02/11 11:15:50;;;;;;;17.10;9.40;;;8.80;99.90;;;;;;5084167;28;20038;-83
2024/02/11 11:18:21;;;;;;;16.70;10.40;;;8.80;99.90;;;;;;5083074;28;20748;-79
2024/02/11 11:20:54;;;;;;;14.88;10.13;;;8.80;99.90;;;;;;5091910;28;20490;-79
2024/02/11 11:23:24;;;;;;;18.17;12.48;;;8.80;99.90;;;;;;5087664;28;20028;-79
2024/02/11 11:25:58;;;;;;;25.63;14.05;;;8.80;99.90;;;;;;5079838;28;20023;-79
2024/02/11 11:28:32;;;;;;;19.27;13.02;;;8.90;99.90;;;;;;5091071;28;20016;-78
2024/02/11 11:30:59;;;;;;;19.20;13.18;;;8.90;99.90;;;;;;5093528;28;20409;-79
2024/02/11 11:33:34;;;;;;;21.60;13.85;;;8.90;99.90;;;;;;5081651;28;20024;-79
2024/02/11 11:36:01;;;;;;;26.17;16.48;;;9.00;99.90;;;;;;5093672;28;20020;-83
2024/02/11 11:38:27;;;;;;;25.58;15.70;;;9.00;99.90;;;;;;5090619;28;20059;-82
2024/02/11 11:40:56;;;;;;;26.40;16.23;;;9.10;99.90;;;;;;5083595;28;20036;-82
2024/02/11 11:43:24;;;;;;;28.70;15.82;;;9.10;99.90;;;;;;5093618;28;20063;-82
2024/02/11 11:46:03;;;;;;;21.10;14.32;;;9.10;99.90;;;;;;5093486;28;20055;-82
2024/02/11 11:48:30;;;;;;;20.13;13.30;;;9.20;99.90;;;;;;5080760;28;20031;-82
2024/02/11 11:50:57;;;;;;;18.65;13.18;;;9.20;99.90;;;;;;5074967;28;20036;-82
2024/02/11 11:53:23;;;;;;;21.92;13.93;;;9.20;99.90;;;;;;5088702;28;20024;-82
2024/02/11 11:55:53;;;;;;;18.17;12.45;;;9.20;99.90;;;;;;5094553;28;20043;-81
2024/02/11 11:58:19;;;;;;;17.58;13.55;;;9.20;99.90;;;;;;5097233;28;20020;-78
2024/02/11 12:01:00;;;;;;;17.88;12.75;;;9.30;99.90;;;;;;5084608;28;20484;-77
2024/02/11 12:03:27;;;;;;;19.15;12.98;;;9.30;99.90;;;;;;5085965;28;20032;-77
2024/02/11 12:05:54;;;;;;;19.00;13.18;;;9.30;99.90;;;;;;5077008;28;20036;-78
2024/02/11 12:08:20;;;;;;;20.30;14.05;;;9.40;99.90;;;;;;5089653;28;20104;-78
2024/02/11 12:11:03;;;;;;;22.80;14.27;;;9.40;99.90;;;;;;5086732;28;20122;-77
2024/02/11 12:13:32;;;;;;;21.73;14.95;;;9.40;99.90;;;;;;5091475;27;20134;-78
2024/02/11 12:15:58;;;;;;;22.38;14.80;;;9.30;99.90;;;;;;5091397;28;20070;-77
2024/02/11 12:18:27;;;;;;;21.25;14.15;;;9.30;99.90;;;;;;5093351;28;20458;-77
2024/02/11 12:20:56;;;;;;;23.42;14.40;;;9.30;99.90;;;;;;5090936;28;20038;-78
2024/02/11 12:23:23;;;;;;;22.77;14.70;;;9.40;99.90;;;;;;5090578;28;20031;-77
2024/02/11 12:25:56;;;;;;;25.52;14.88;;;9.40;99.90;;;;;;5087918;28;20036;-78
2024/02/11 12:28:25;;;;;;;26.38;15.55;;;9.40;99.90;;;;;;5081801;28;20019;-78
2024/02/11 12:30:51;;;;;;;64.30;42.92;;;9.40;99.90;;;;;;5085839;28;20036;-79
2024/02/11 12:33:17;;;;;;;63.80;47.95;;;9.40;99.90;;;;;;5081377;28;20477;-79
2024/02/11 12:35:44;;;;;;;43.22;31.00;;;9.50;99.90;;;;;;5079313;28;20485;-78
2024/02/11 12:38:10;;;;;;;31.88;22.02;;;9.60;99.90;;;;;;5091517;28;20504;-79
2024/02/11 12:40:37;;;;;;;37.60;23.90;;;9.60;99.90;;;;;;5086577;28;20044;-79